createdAt,value
2019-05-17T00:01:37.829Z,35.73
2019-05-17T00:04:08.750Z,34.08
2019-05-17T00:06:39.514Z,35.10
2019-05-17T00:09:10.431Z,32.10
2019-05-17T00:11:41.386Z,34.88
2019-05-17T00:14:12.915Z,32.30
2019-05-17T00:16:43.952Z,33.28
2019-05-17T00:19:26.957Z,35.60
2019-05-17T00:21:57.819Z,42.00
2019-05-17T00:24:28.743Z,32.88
2019-05-17T00:26:59.530Z,32.78
2019-05-17T00:29:30.458Z,31.45
2019-05-17T00:32:01.260Z,32.05
2019-05-17T00:34:32.083Z,36.65
2019-05-17T00:37:02.919Z,36.10
2019-05-17T00:39:36.503Z,33.45
2019-05-17T00:42:06.978Z,32.23
2019-05-17T00:44:38.104Z,38.00
2019-05-17T00:47:09.129Z,33.92
2019-05-17T00:49:39.896Z,31.70
2019-05-17T00:52:10.641Z,31.82
2019-05-17T00:54:41.450Z,30.68
2019-05-17T00:57:12.245Z,30.80
2019-05-17T00:59:42.956Z,35.28
2019-05-17T01:02:16.159Z,33.10
2019-05-17T01:04:47.631Z,32.67
2019-05-17T01:07:18.694Z,31.17
2019-05-17T01:09:49.948Z,33.90
2019-05-17T01:12:20.844Z,31.07
2019-05-17T01:14:51.735Z,33.25
2019-05-17T01:17:22.491Z,34.95
2019-05-17T01:19:53.474Z,28.73
2019-05-17T01:22:26.164Z,31.82
2019-05-17T01:24:56.925Z,30.15
2019-05-17T01:27:27.995Z,31.85
2019-05-17T01:29:58.837Z,34.00
2019-05-17T01:32:29.582Z,30.08
2019-05-17T01:35:00.449Z,30.95
2019-05-17T01:37:31.265Z,28.92
2019-05-17T01:40:02.095Z,32.05
2019-05-17T01:42:33.043Z,33.35
2019-05-17T01:45:03.828Z,31.55
2019-05-17T01:47:36.587Z,32.17
2019-05-17T01:50:08.244Z,30.62
2019-05-17T01:52:39.215Z,29.70
2019-05-17T01:55:10.945Z,29.25
2019-05-17T01:57:41.783Z,25.75
2019-05-17T02:00:13.759Z,29.92
2019-05-17T02:02:47.129Z,30.02
2019-05-17T02:05:22.085Z,30.20
2019-05-17T02:07:53.216Z,28.73
2019-05-17T02:10:27.026Z,24.82
2019-05-17T02:12:57.083Z,27.95
2019-05-17T02:15:28.141Z,31.10
2019-05-17T02:17:59.103Z,29.20
2019-05-17T02:20:30.919Z,29.77
2019-05-17T02:23:01.873Z,26.45
2019-05-17T02:25:32.864Z,29.82
2019-05-17T02:28:03.756Z,26.45
2019-05-17T02:30:34.777Z,25.55
2019-05-17T02:33:06.086Z,25.82
2019-05-17T02:35:37.003Z,26.17
2019-05-17T02:38:07.894Z,29.87
2019-05-17T02:40:38.791Z,27.60
2019-05-17T02:43:13.019Z,27.45
2019-05-17T02:45:43.583Z,32.17
2019-05-17T02:48:14.254Z,25.65
2019-05-17T02:50:48.169Z,24.57
2019-05-17T02:53:18.017Z,25.45
2019-05-17T02:55:48.841Z,24.77
2019-05-17T02:58:23.075Z,29.72
2019-05-17T03:00:53.211Z,27.48
2019-05-17T03:03:25.583Z,26.25
2019-05-17T03:05:56.399Z,26.37
2019-05-17T03:08:27.474Z,24.77
2019-05-17T03:10:58.388Z,26.68
2019-05-17T03:13:32.645Z,24.60
2019-05-17T03:16:03.343Z,26.52
2019-05-17T03:18:33.935Z,29.40
2019-05-17T03:21:04.960Z,23.57
2019-05-17T03:23:35.968Z,23.92
2019-05-17T03:26:06.997Z,23.30
2019-05-17T03:28:42.632Z,28.90
2019-05-17T03:31:16.839Z,28.80
2019-05-17T03:33:47.468Z,23.47
2019-05-17T03:36:18.426Z,22.20
2019-05-17T03:38:49.498Z,24.90
2019-05-17T03:41:28.449Z,23.07
2019-05-17T03:43:53.703Z,23.80
2019-05-17T03:46:24.545Z,20.75
2019-05-17T03:48:56.518Z,25.65
2019-05-17T03:51:27.753Z,24.90
2019-05-17T03:53:58.496Z,21.93
2019-05-17T03:56:29.418Z,23.20
2019-05-17T03:59:03.396Z,21.65
2019-05-17T04:01:32.884Z,21.77
2019-05-17T04:04:03.752Z,21.73
2019-05-17T04:06:34.822Z,28.23
2019-05-17T04:09:06.790Z,19.27
2019-05-17T04:11:37.672Z,23.83
2019-05-17T04:14:08.674Z,21.27
2019-05-17T04:16:42.607Z,29.00
2019-05-17T04:19:14.012Z,21.73
2019-05-17T04:21:45.764Z,20.70
2019-05-17T04:24:16.616Z,20.45
2019-05-17T04:26:47.559Z,20.60
2019-05-17T04:29:18.248Z,22.40
2019-05-17T04:31:49.091Z,20.25
2019-05-17T04:34:22.321Z,18.65
2019-05-17T04:36:52.418Z,26.87
2019-05-17T04:39:23.357Z,20.85
2019-05-17T04:41:54.966Z,21.42
2019-05-17T04:44:26.264Z,21.50
2019-05-17T04:46:56.989Z,22.40
2019-05-17T04:49:28.198Z,22.05
2019-05-17T04:51:59.074Z,19.48
2019-05-17T04:54:33.085Z,20.65
2019-05-17T04:57:02.691Z,19.35
2019-05-17T04:59:34.183Z,20.12
2019-05-17T05:02:05.323Z,19.00
2019-05-17T05:04:38.450Z,22.93
2019-05-17T05:07:08.770Z,23.70
2019-05-17T05:09:42.757Z,23.18
2019-05-17T05:12:12.712Z,17.87
2019-05-17T05:14:43.876Z,18.30
2019-05-17T05:17:14.925Z,19.10
2019-05-17T05:19:45.741Z,22.32
2019-05-17T05:22:17.485Z,19.45
2019-05-17T05:24:48.526Z,23.12
2019-05-17T05:27:19.464Z,20.92
2019-05-17T05:29:52.093Z,21.68
2019-05-17T05:32:22.660Z,19.27
2019-05-17T05:34:53.633Z,20.90
2019-05-17T05:37:24.606Z,21.65
2019-05-17T05:39:55.359Z,20.05
2019-05-17T05:42:26.364Z,24.77
2019-05-17T05:44:57.347Z,17.10
2019-05-17T05:47:28.392Z,23.77
2019-05-17T05:50:01.435Z,18.77
2019-05-17T05:52:32.369Z,21.23
2019-05-17T05:55:03.894Z,20.37
2019-05-17T05:57:34.646Z,16.97
2019-05-17T06:00:08.314Z,17.98
2019-05-17T06:02:41.709Z,19.45
2019-05-17T06:05:14.874Z,25.52
2019-05-17T06:07:44.121Z,18.10
2019-05-17T06:10:15.339Z,22.85
2019-05-17T06:12:46.192Z,18.37
2019-05-17T06:15:17.705Z,19.82
2019-05-17T06:18:07.722Z,21.80
2019-05-17T06:20:38.694Z,19.12
2019-05-17T06:23:11.933Z,18.40
2019-05-17T06:25:43.534Z,22.80
2019-05-17T06:28:13.920Z,21.25
2019-05-17T06:30:45.348Z,20.52
2019-05-17T06:33:26.991Z,21.05
2019-05-17T06:35:48.376Z,23.67
2019-05-17T06:38:19.339Z,21.27
2019-05-17T06:40:52.189Z,23.47
2019-05-17T06:43:22.247Z,20.00
2019-05-17T06:45:53.172Z,22.85
2019-05-17T06:48:24.042Z,23.95
2019-05-17T06:50:54.760Z,21.70
2019-05-17T06:53:25.655Z,19.05
2019-05-17T06:55:56.931Z,21.25
2019-05-17T06:58:31.389Z,20.50
2019-05-17T07:01:01.662Z,18.48
2019-05-17T07:03:32.720Z,19.60
2019-05-17T07:06:04.870Z,19.80
2019-05-17T07:08:36.016Z,19.20
2019-05-17T07:11:07.039Z,20.37
2019-05-17T07:13:39.532Z,19.20
2019-05-17T07:16:10.340Z,20.17
2019-05-17T07:18:41.021Z,19.60
2019-05-17T07:21:11.867Z,19.67
2019-05-17T07:23:42.946Z,20.72
2019-05-17T07:26:15.492Z,16.82
2019-05-17T07:28:46.327Z,20.82
2019-05-17T07:31:19.633Z,19.65
2019-05-17T07:33:50.453Z,25.10
2019-05-17T07:36:21.496Z,21.55
2019-05-17T07:38:52.236Z,20.17
2019-05-17T07:41:23.066Z,21.07
2019-05-17T07:43:53.866Z,20.80
2019-05-17T07:46:24.710Z,19.30
2019-05-17T07:48:55.703Z,15.95
2019-05-17T07:51:26.759Z,17.52
2019-05-17T07:53:59.594Z,23.85
2019-05-17T07:56:30.605Z,20.20
2019-05-17T07:59:01.430Z,23.57
2019-05-17T08:01:32.416Z,17.87
2019-05-17T08:04:03.380Z,21.77
2019-05-17T08:06:34.384Z,18.15
2019-05-17T08:09:13.319Z,18.37
2019-05-17T08:11:39.689Z,18.20
2019-05-17T08:14:10.935Z,21.30
2019-05-17T08:16:41.845Z,21.30
2019-05-17T08:19:12.663Z,18.92
2019-05-17T08:21:43.636Z,22.58
2019-05-17T08:24:14.569Z,17.45
2019-05-17T08:26:46.741Z,20.43
2019-05-17T08:29:17.493Z,24.05
2019-05-17T08:31:49.683Z,17.75
2019-05-17T08:34:20.791Z,21.35
2019-05-17T08:36:52.489Z,16.48
2019-05-17T08:39:23.531Z,19.90
2019-05-17T08:41:54.992Z,20.27
2019-05-17T08:44:25.932Z,20.77
2019-05-17T08:46:59.467Z,18.60
2019-05-17T08:49:30.526Z,26.40
2019-05-17T08:52:01.599Z,17.60
2019-05-17T08:54:32.720Z,19.60
2019-05-17T08:57:03.771Z,19.48
2019-05-17T08:59:34.569Z,18.30
2019-05-17T09:02:05.640Z,19.07
2019-05-17T09:04:36.475Z,21.27
2019-05-17T09:07:09.399Z,20.20
2019-05-17T09:09:39.908Z,24.02
2019-05-17T09:12:11.146Z,16.40
2019-05-17T09:14:42.205Z,16.07
2019-05-17T09:17:13.055Z,22.10
2019-05-17T09:19:43.856Z,23.02
2019-05-17T09:22:14.746Z,17.12
2019-05-17T09:24:49.814Z,22.62
2019-05-17T09:27:20.487Z,17.73
2019-05-17T09:29:51.657Z,15.90
2019-05-17T09:32:22.646Z,22.05
2019-05-17T09:34:53.544Z,17.35
2019-05-17T09:37:24.646Z,19.02
2019-05-17T09:39:55.492Z,23.35
2019-05-17T09:42:26.489Z,23.42
2019-05-17T09:45:00.324Z,19.10
2019-05-17T09:47:31.482Z,21.23
2019-05-17T09:50:02.431Z,19.02
2019-05-17T09:52:33.310Z,19.25
2019-05-17T09:55:04.323Z,20.88
2019-05-17T09:57:35.438Z,18.55
2019-05-17T10:00:09.903Z,23.12
2019-05-17T10:02:41.015Z,19.62
2019-05-17T10:05:12.336Z,18.37
2019-05-17T10:07:43.019Z,19.32
2019-05-17T10:10:14.313Z,25.75
2019-05-17T10:12:45.182Z,22.05
2019-05-17T10:15:15.991Z,20.25
2019-05-17T10:17:46.847Z,21.55
2019-05-17T10:20:19.847Z,18.60
2019-05-17T10:22:50.584Z,22.00
2019-05-17T10:25:29.360Z,23.15
2019-05-17T10:28:01.572Z,19.42
2019-05-17T10:30:32.390Z,18.42
2019-05-17T10:33:03.292Z,18.27
2019-05-17T10:35:34.489Z,17.80
2019-05-17T10:38:13.919Z,22.32
2019-05-17T10:40:45.132Z,20.65
2019-05-17T10:43:16.100Z,18.37
2019-05-17T10:45:49.099Z,20.43
2019-05-17T10:48:21.407Z,22.52
2019-05-17T10:50:52.923Z,18.77
2019-05-17T10:53:29.572Z,20.95
2019-05-17T10:56:00.693Z,18.90
2019-05-17T10:58:32.723Z,20.92
2019-05-17T11:01:03.744Z,18.17
2019-05-17T11:03:34.669Z,19.67
2019-05-17T11:06:05.466Z,22.58
2019-05-17T11:08:36.660Z,20.95
2019-05-17T11:11:10.041Z,17.95
2019-05-17T11:13:39.887Z,20.48
2019-05-17T11:16:10.817Z,17.62
2019-05-17T11:18:41.757Z,18.32
2019-05-17T11:21:12.568Z,18.80
2019-05-17T11:23:43.356Z,21.87
2019-05-17T11:26:14.577Z,23.05
2019-05-17T11:28:45.531Z,20.88
2019-05-17T11:31:16.462Z,20.43
2019-05-17T11:33:47.429Z,21.90
2019-05-17T11:36:18.486Z,24.98
2019-05-17T11:38:49.399Z,20.57
2019-05-17T11:41:21.733Z,22.13
2019-05-17T11:43:52.194Z,29.37
2019-05-17T11:46:35.361Z,21.95
2019-05-17T11:48:55.251Z,24.07
2019-05-17T11:51:27.705Z,26.57
2019-05-17T11:53:58.592Z,26.57
2019-05-17T11:56:29.580Z,30.37
2019-05-17T11:59:01.425Z,25.45
2019-05-17T12:01:32.636Z,25.20
2019-05-17T12:04:03.700Z,25.88
2019-05-17T12:06:34.527Z,26.50
2019-05-17T12:09:06.769Z,23.18
2019-05-17T12:11:37.629Z,23.25
2019-05-17T12:14:08.547Z,26.10
2019-05-17T12:16:39.486Z,24.07
2019-05-17T12:19:10.229Z,27.70
2019-05-17T12:21:40.999Z,25.55
2019-05-17T12:24:11.974Z,25.05
2019-05-17T12:26:42.722Z,25.20
2019-05-17T12:29:13.650Z,28.83
2019-05-17T12:31:44.316Z,25.25
2019-05-17T12:34:15.176Z,24.20
2019-05-17T12:36:45.994Z,26.93
2019-05-17T12:39:16.667Z,28.73
2019-05-17T12:41:47.522Z,26.27
2019-05-17T12:44:18.503Z,29.82
2019-05-17T12:46:49.361Z,27.42
2019-05-17T12:49:20.288Z,28.52
2019-05-17T12:51:51.234Z,24.98
2019-05-17T12:54:22.247Z,31.40
2019-05-17T12:56:53.171Z,26.90
2019-05-17T12:59:36.109Z,28.85
2019-05-17T13:02:07.127Z,24.90
2019-05-17T13:04:38.061Z,25.82
2019-05-17T13:07:09.044Z,24.82
2019-05-17T13:09:40.025Z,26.93
2019-05-17T13:12:11.048Z,28.12
2019-05-17T13:14:42.088Z,26.40
2019-05-17T13:17:12.951Z,25.17
2019-05-17T13:19:47.952Z,25.48
2019-05-17T13:22:17.286Z,28.92
2019-05-17T13:24:48.332Z,28.73
2019-05-17T13:27:19.205Z,29.70
2019-05-17T13:29:50.201Z,21.87
2019-05-17T13:32:21.284Z,26.27
2019-05-17T13:34:52.209Z,27.50
2019-05-17T13:37:23.154Z,27.35
2019-05-17T13:39:54.127Z,28.05
2019-05-17T13:42:24.939Z,22.13
2019-05-17T13:44:55.939Z,31.48
2019-05-17T13:47:26.719Z,26.57
2019-05-17T13:49:57.593Z,24.63
2019-05-17T13:52:28.609Z,23.95
2019-05-17T13:54:59.862Z,26.48
2019-05-17T13:57:30.689Z,25.88
2019-05-17T14:00:01.516Z,20.27
2019-05-17T14:02:32.782Z,21.10
2019-05-17T14:05:03.674Z,26.97
2019-05-17T14:07:34.906Z,22.50
2019-05-17T14:10:06.819Z,22.07
2019-05-17T14:12:37.587Z,25.62
2019-05-17T14:15:10.348Z,22.73
2019-05-17T14:17:41.698Z,24.23
2019-05-17T14:20:12.796Z,23.22
2019-05-17T14:22:43.575Z,25.55
2019-05-17T14:25:16.243Z,22.50
2019-05-17T14:27:46.974Z,28.38
2019-05-17T14:30:19.416Z,22.10
2019-05-17T14:32:50.351Z,21.40
2019-05-17T14:35:21.211Z,22.32
2019-05-17T14:37:52.176Z,23.10
2019-05-17T14:40:22.979Z,24.95
2019-05-17T14:42:53.964Z,23.32
2019-05-17T14:45:24.736Z,21.40
2019-05-17T14:47:55.738Z,23.40
2019-05-17T14:50:26.583Z,27.77
2019-05-17T14:52:58.484Z,31.40
2019-05-17T14:55:29.456Z,24.77
2019-05-17T14:58:00.382Z,25.77
2019-05-17T15:00:31.466Z,24.15
2019-05-17T15:03:02.324Z,26.17
2019-05-17T15:05:35.189Z,31.27
2019-05-17T15:08:06.110Z,25.40
2019-05-17T15:10:37.012Z,26.15
2019-05-17T15:13:07.757Z,25.20
2019-05-17T15:15:38.681Z,27.58
2019-05-17T15:18:10.070Z,24.75
2019-05-17T15:20:40.934Z,24.52
2019-05-17T15:23:11.936Z,24.82
2019-05-17T15:25:42.828Z,25.75
2019-05-17T15:28:13.800Z,27.17
2019-05-17T15:30:44.835Z,24.65
2019-05-17T15:33:15.964Z,28.02
2019-05-17T15:35:46.873Z,27.52
2019-05-17T15:38:17.775Z,23.90
2019-05-17T15:40:48.545Z,24.05
2019-05-17T15:43:19.449Z,23.60
2019-05-17T15:45:50.259Z,25.23
2019-05-17T15:48:21.115Z,21.73
2019-05-17T15:50:51.969Z,24.65
2019-05-17T15:53:22.936Z,27.60
2019-05-17T15:55:54.182Z,24.75
2019-05-17T15:58:25.260Z,24.87
2019-05-17T16:00:56.108Z,27.95
2019-05-17T16:03:27.033Z,25.00
2019-05-17T16:05:58.064Z,25.27
2019-05-17T16:08:29.748Z,26.20
2019-05-17T16:11:00.935Z,27.65
2019-05-17T16:13:33.810Z,22.35
2019-05-17T16:16:03.833Z,26.00
2019-05-17T16:18:35.166Z,27.52
2019-05-17T16:21:08.489Z,23.80
2019-05-17T16:23:39.421Z,29.52
2019-05-17T16:26:10.234Z,28.45
2019-05-17T16:28:41.101Z,24.92
2019-05-17T16:31:11.908Z,25.88
2019-05-17T16:33:42.902Z,28.25
2019-05-17T16:36:13.998Z,24.05
2019-05-17T16:38:44.862Z,31.93
2019-05-17T16:41:15.675Z,23.75
2019-05-17T16:43:46.726Z,31.50
2019-05-17T16:46:17.805Z,28.75
2019-05-17T16:48:48.887Z,28.05
2019-05-17T16:51:19.765Z,35.43
2019-05-17T16:53:52.831Z,26.42
2019-05-17T16:56:24.007Z,29.18
2019-05-17T16:58:55.303Z,25.85
2019-05-17T17:01:26.226Z,27.42
2019-05-17T17:03:59.615Z,27.42
2019-05-17T17:06:31.780Z,29.18
2019-05-17T17:09:02.603Z,25.82
2019-05-17T17:11:33.749Z,30.25
2019-05-17T17:14:05.883Z,27.05
2019-05-17T17:16:36.628Z,26.93
2019-05-17T17:19:07.475Z,24.70
2019-05-17T17:21:42.654Z,25.70
2019-05-17T17:24:13.522Z,25.92
2019-05-17T17:28:01.625Z,25.77
2019-05-17T17:29:35.130Z,23.22
2019-05-17T17:32:20.799Z,22.37
2019-05-17T17:34:39.649Z,27.75
2019-05-17T17:37:20.708Z,27.70
2019-05-17T17:39:53.322Z,22.67
2019-05-17T17:42:23.624Z,26.85
2019-05-17T17:44:54.562Z,27.55
2019-05-17T17:47:25.503Z,26.50
2019-05-17T17:49:56.420Z,27.67
2019-05-17T17:52:29.914Z,26.57
2019-05-17T17:55:01.015Z,24.00
2019-05-17T17:57:32.912Z,26.15
2019-05-17T18:00:07.310Z,24.20
2019-05-17T18:02:40.114Z,23.60
2019-05-17T18:05:11.952Z,23.10
2019-05-17T18:07:42.986Z,26.90
2019-05-17T18:10:18.907Z,25.90
2019-05-17T18:12:50.105Z,25.73
2019-05-17T18:15:23.587Z,24.60
2019-05-17T18:17:57.295Z,25.20
2019-05-17T18:20:28.447Z,25.62
2019-05-17T18:23:00.518Z,21.57
2019-05-17T18:25:32.758Z,25.02
2019-05-17T18:28:03.640Z,23.20
2019-05-17T18:30:34.979Z,26.12
2019-05-17T18:33:06.226Z,24.60
2019-05-17T18:35:37.851Z,26.12
2019-05-17T18:38:09.247Z,25.65
2019-05-17T18:40:44.346Z,25.05
2019-05-17T18:43:16.420Z,24.72
2019-05-17T18:45:47.389Z,24.18
2019-05-17T18:48:18.463Z,25.88
2019-05-17T18:50:49.203Z,25.20
2019-05-17T18:53:21.211Z,25.52
2019-05-17T18:55:51.995Z,24.80
2019-05-17T18:58:23.535Z,28.45
2019-05-17T19:00:55.342Z,26.07
2019-05-17T19:03:27.578Z,24.45
2019-05-17T19:05:58.550Z,24.55
2019-05-17T19:08:32.511Z,27.32
2019-05-17T19:11:03.704Z,25.23
2019-05-17T19:13:35.061Z,22.98
2019-05-17T19:16:05.919Z,26.42
2019-05-17T19:18:36.732Z,26.35
2019-05-17T19:21:07.619Z,26.57
2019-05-17T19:23:39.496Z,31.68
2019-05-17T19:26:10.326Z,29.15
2019-05-17T19:28:45.416Z,27.05
2019-05-17T19:31:15.806Z,23.98
2019-05-17T19:33:47.974Z,25.65
2019-05-17T19:36:18.854Z,30.05
2019-05-17T19:38:52.740Z,27.52
2019-05-17T19:41:23.987Z,28.92
2019-05-17T19:43:55.005Z,28.20
2019-05-17T19:46:25.866Z,24.60
2019-05-17T19:48:57.492Z,27.65
2019-05-17T19:51:28.338Z,27.13
2019-05-17T19:53:59.260Z,23.70
2019-05-17T19:56:30.251Z,24.80
2019-05-17T19:59:01.221Z,26.95
2019-05-17T20:01:33.312Z,28.70
2019-05-17T20:04:06.105Z,27.27
2019-05-17T20:06:38.572Z,29.35
2019-05-17T20:09:09.228Z,25.05
2019-05-17T20:11:40.111Z,27.82
2019-05-17T20:14:11.136Z,26.65
2019-05-17T20:16:42.022Z,27.25
2019-05-17T20:19:26.213Z,32.28
2019-05-17T20:21:57.268Z,26.27
2019-05-17T20:24:28.256Z,25.15
2019-05-17T20:26:59.908Z,25.37
2019-05-17T20:29:30.784Z,27.35
2019-05-17T20:32:01.630Z,26.00
2019-05-17T20:34:32.439Z,25.10
2019-05-17T20:37:03.367Z,25.52
2019-05-17T20:39:34.310Z,26.62
2019-05-17T20:42:05.169Z,29.15
2019-05-17T20:44:37.076Z,29.60
2019-05-17T20:47:07.923Z,28.75
2019-05-17T20:49:43.433Z,25.00
2019-05-17T20:52:17.156Z,28.92
2019-05-17T20:54:48.960Z,27.77
2019-05-17T20:57:19.905Z,25.25
2019-05-17T20:59:52.049Z,27.48
2019-05-17T21:02:23.066Z,25.37
2019-05-17T21:04:54.429Z,27.95
2019-05-17T21:07:25.358Z,26.97
2019-05-17T21:09:56.261Z,26.75
2019-05-17T21:12:27.270Z,28.12
2019-05-17T21:14:58.234Z,24.82
2019-05-17T21:17:29.213Z,28.73
2019-05-17T21:20:00.103Z,31.75
2019-05-17T21:22:31.264Z,30.20
2019-05-17T21:25:02.211Z,30.48
2019-05-17T21:27:33.317Z,29.90
2019-05-17T21:30:04.556Z,31.85
2019-05-17T21:32:35.349Z,31.48
2019-05-17T21:35:07.704Z,30.88
2019-05-17T21:37:41.314Z,28.00
2019-05-17T21:40:13.342Z,29.90
2019-05-17T21:42:44.425Z,30.72
2019-05-17T21:45:15.517Z,30.72
2019-05-17T21:47:46.521Z,26.82
2019-05-17T21:50:18.148Z,29.87
2019-05-17T21:52:49.063Z,31.35
2019-05-17T21:55:20.103Z,30.15
2019-05-17T21:57:51.005Z,31.55
2019-05-17T22:00:25.677Z,28.87
2019-05-17T22:02:56.675Z,28.70
2019-05-17T22:05:27.557Z,33.13
2019-05-17T22:07:58.429Z,32.20
2019-05-17T22:10:29.330Z,29.57
2019-05-17T22:13:00.287Z,28.45
2019-05-17T22:15:31.049Z,30.05
2019-05-17T22:18:01.902Z,33.48
2019-05-17T22:20:32.921Z,31.55
2019-05-17T22:23:04.033Z,28.30
2019-05-17T22:25:34.950Z,31.05
2019-05-17T22:28:05.949Z,29.63
2019-05-17T22:30:36.672Z,28.90
2019-05-17T22:33:07.636Z,35.33
2019-05-17T22:35:38.621Z,33.20
2019-05-17T22:38:09.550Z,33.23
2019-05-17T22:40:40.368Z,33.38
2019-05-17T22:43:11.402Z,31.52
2019-05-17T22:45:43.036Z,32.75
2019-05-17T22:48:13.911Z,28.47
2019-05-17T22:50:45.422Z,31.97
2019-05-17T22:53:16.342Z,30.35
2019-05-17T22:55:47.236Z,32.45
2019-05-17T22:58:18.230Z,35.40
2019-05-17T23:00:49.240Z,34.38
2019-05-17T23:03:20.183Z,36.42
2019-05-17T23:05:51.244Z,38.83
2019-05-17T23:08:22.491Z,34.60
2019-05-17T23:10:53.441Z,38.65
2019-05-17T23:13:24.425Z,30.92
2019-05-17T23:15:56.852Z,38.75
2019-05-17T23:18:27.716Z,35.30
2019-05-17T23:20:58.697Z,34.05
2019-05-17T23:23:29.661Z,36.48
2019-05-17T23:26:00.753Z,34.73
2019-05-17T23:28:31.663Z,37.90
2019-05-17T23:31:02.584Z,36.48
2019-05-17T23:33:33.580Z,39.38
2019-05-17T23:36:04.630Z,34.55
2019-05-17T23:38:35.481Z,38.05
2019-05-17T23:41:06.396Z,32.15
2019-05-17T23:43:37.146Z,33.80
2019-05-17T23:46:08.806Z,36.20
2019-05-17T23:48:39.659Z,32.45
2019-05-17T23:51:10.526Z,37.17
2019-05-17T23:53:41.324Z,34.20
2019-05-17T23:56:12.224Z,32.83
2019-05-17T23:58:43.056Z,40.43
